NGTA/TRW METAR and TAF weather

Enter ICAO airport designator
Station Type Date Time Source
NGTA METAR 2020/05/29 18:00 UTC NOAA

NGTA 291800Z 12007KT 9999 FEW019 28/24 Q1011


Station Type Date Time Source
NGTA Decoded METAR 2020/05/29 18:00 UTC NOAA

Tarawa, Kiribati (NGTA) 01-21N 172-55E 4M
May 29, 2020 - 02:00 PM EDT / 2020.05.29 1800 UTC
Wind: from the ESE (120 degrees) at 8 MPH (7 KT):0
Visibility: greater than 7 mile(s):0
Sky conditions: mostly clear
Temperature: 82 F (28 C)
Dew Point: 75 F (24 C)
Relative Humidity: 78%
Pressure (altimeter): 29.85 in. Hg (1011 hPa)
ob: NGTA 291800Z 12007KT 9999 FEW019 28/24 Q1011
cycle: 18

Station Type Date Time Source
NGTA TAF 2020/05/29 12:21 UTC NOAA

TAF TAF NGTA 291119Z 2912/3012 11009KT 9999 FEW019 PRO40
TEMPO 2912/3006 5000 SHRA BKN016

Example: see airport list